sensor_id;sensor_type;location;lat;lon;timestamp;P1;durP1;ratioP1;P2;durP2;ratioP2
43146;SDS011;28752;48.266;7.402;2023-08-21T00:01:00;6.63;;;4.45;;
43146;SDS011;28752;48.266;7.402;2023-08-21T00:08:15;8.07;;;4.43;;
43146;SDS011;28752;48.266;7.402;2023-08-21T00:13:06;6.57;;;4.70;;
43146;SDS011;28752;48.266;7.402;2023-08-21T00:17:57;7.25;;;4.55;;
43146;SDS011;28752;48.266;7.402;2023-08-21T00:22:48;7.35;;;4.10;;
43146;SDS011;28752;48.266;7.402;2023-08-21T00:27:39;7.18;;;4.60;;
43146;SDS011;28752;48.266;7.402;2023-08-21T00:32:30;7.45;;;4.80;;
43146;SDS011;28752;48.266;7.402;2023-08-21T00:37:20;8.87;;;4.40;;
43146;SDS011;28752;48.266;7.402;2023-08-21T00:42:11;7.07;;;4.60;;
43146;SDS011;28752;48.266;7.402;2023-08-21T00:47:01;7.10;;;5.03;;
43146;SDS011;28752;48.266;7.402;2023-08-21T00:51:53;7.03;;;4.50;;
43146;SDS011;28752;48.266;7.402;2023-08-21T00:56:44;8.68;;;5.68;;
43146;SDS011;28752;48.266;7.402;2023-08-21T01:01:35;7.38;;;5.07;;
43146;SDS011;28752;48.266;7.402;2023-08-21T01:04:02;7.78;;;5.20;;
43146;SDS011;28752;48.266;7.402;2023-08-21T01:06:28;7.43;;;5.28;;
43146;SDS011;28752;48.266;7.402;2023-08-21T01:11:22;8.85;;;5.00;;
43146;SDS011;28752;48.266;7.402;2023-08-21T01:13:59;8.48;;;5.40;;
43146;SDS011;28752;48.266;7.402;2023-08-21T01:16:33;7.68;;;4.90;;
43146;SDS011;28752;48.266;7.402;2023-08-21T01:21:25;8.75;;;5.55;;
43146;SDS011;28752;48.266;7.402;2023-08-21T01:26:17;9.75;;;5.63;;
43146;SDS011;28752;48.266;7.402;2023-08-21T01:28:42;7.85;;;5.03;;
43146;SDS011;28752;48.266;7.402;2023-08-21T01:33:38;10.00;;;6.53;;
43146;SDS011;28752;48.266;7.402;2023-08-21T01:36:09;10.25;;;6.47;;
43146;SDS011;28752;48.266;7.402;2023-08-21T01:38:35;7.90;;;5.97;;
43146;SDS011;28752;48.266;7.402;2023-08-21T01:43:27;8.75;;;5.57;;
43146;SDS011;28752;48.266;7.402;2023-08-21T01:45:52;8.30;;;5.85;;
43146;SDS011;28752;48.266;7.402;2023-08-21T01:48:18;9.35;;;5.65;;
43146;SDS011;28752;48.266;7.402;2023-08-21T01:53:08;8.20;;;5.53;;
43146;SDS011;28752;48.266;7.402;2023-08-21T01:57:59;8.60;;;5.50;;
43146;SDS011;28752;48.266;7.402;2023-08-21T02:02:49;8.67;;;6.53;;
43146;SDS011;28752;48.266;7.402;2023-08-21T02:05:15;9.85;;;6.60;;
43146;SDS011;28752;48.266;7.402;2023-08-21T02:07:40;8.15;;;5.95;;
43146;SDS011;28752;48.266;7.402;2023-08-21T02:10:05;10.20;;;6.28;;
43146;SDS011;28752;48.266;7.402;2023-08-21T02:14:56;9.40;;;6.43;;
43146;SDS011;28752;48.266;7.402;2023-08-21T02:17:22;8.85;;;5.97;;
43146;SDS011;28752;48.266;7.402;2023-08-21T02:19:50;11.05;;;5.93;;
43146;SDS011;28752;48.266;7.402;2023-08-21T02:22:16;9.30;;;5.88;;
43146;SDS011;28752;48.266;7.402;2023-08-21T02:24:41;9.57;;;6.13;;
43146;SDS011;28752;48.266;7.402;2023-08-21T02:27:06;9.85;;;6.20;;
43146;SDS011;28752;48.266;7.402;2023-08-21T02:29:32;7.65;;;5.82;;
43146;SDS011;28752;48.266;7.402;2023-08-21T02:31:57;8.90;;;5.90;;
43146;SDS011;28752;48.266;7.402;2023-08-21T02:34:23;8.02;;;5.80;;
43146;SDS011;28752;48.266;7.402;2023-08-21T02:36:49;10.45;;;6.10;;
43146;SDS011;28752;48.266;7.402;2023-08-21T02:39:14;11.15;;;6.28;;
43146;SDS011;28752;48.266;7.402;2023-08-21T02:44:05;8.07;;;5.72;;
43146;SDS011;28752;48.266;7.402;2023-08-21T02:46:30;9.13;;;6.30;;
43146;SDS011;28752;48.266;7.402;2023-08-21T02:48:56;9.40;;;5.85;;
43146;SDS011;28752;48.266;7.402;2023-08-21T02:51:21;9.20;;;5.65;;
43146;SDS011;28752;48.266;7.402;2023-08-21T02:53:46;9.43;;;5.80;;
43146;SDS011;28752;48.266;7.402;2023-08-21T02:56:12;9.00;;;6.55;;
43146;SDS011;28752;48.266;7.402;2023-08-21T02:58:37;8.02;;;6.22;;
43146;SDS011;28752;48.266;7.402;2023-08-21T03:01:02;12.10;;;7.30;;
43146;SDS011;28752;48.266;7.402;2023-08-21T03:03:28;8.77;;;6.37;;
43146;SDS011;28752;48.266;7.402;2023-08-21T03:05:53;9.97;;;6.23;;
43146;SDS011;28752;48.266;7.402;2023-08-21T03:08:18;10.53;;;7.10;;
43146;SDS011;28752;48.266;7.402;2023-08-21T03:10:44;10.07;;;7.00;;
43146;SDS011;28752;48.266;7.402;2023-08-21T03:13:09;10.05;;;6.18;;
43146;SDS011;28752;48.266;7.402;2023-08-21T03:15:34;10.20;;;6.60;;
43146;SDS011;28752;48.266;7.402;2023-08-21T03:18:00;8.25;;;5.85;;
43146;SDS011;28752;48.266;7.402;2023-08-21T03:20:25;8.25;;;6.38;;
43146;SDS011;28752;48.266;7.402;2023-08-21T03:22:51;9.45;;;6.80;;
43146;SDS011;28752;48.266;7.402;2023-08-21T03:25:16;9.18;;;6.00;;
43146;SDS011;28752;48.266;7.402;2023-08-21T03:27:41;9.93;;;6.30;;
43146;SDS011;28752;48.266;7.402;2023-08-21T03:30:09;10.13;;;6.43;;
43146;SDS011;28752;48.266;7.402;2023-08-21T03:32:35;9.52;;;6.45;;
43146;SDS011;28752;48.266;7.402;2023-08-21T03:35:00;8.63;;;6.40;;
43146;SDS011;28752;48.266;7.402;2023-08-21T03:37:26;9.38;;;6.78;;
43146;SDS011;28752;48.266;7.402;2023-08-21T03:39:51;9.02;;;5.90;;
43146;SDS011;28752;48.266;7.402;2023-08-21T03:42:16;7.97;;;5.85;;
43146;SDS011;28752;48.266;7.402;2023-08-21T03:44:42;8.38;;;6.22;;
43146;SDS011;28752;48.266;7.402;2023-08-21T03:47:07;8.50;;;5.63;;
43146;SDS011;28752;48.266;7.402;2023-08-21T03:49:33;10.02;;;5.78;;
43146;SDS011;28752;48.266;7.402;2023-08-21T03:51:58;7.83;;;6.10;;
43146;SDS011;28752;48.266;7.402;2023-08-21T03:54:23;8.00;;;5.63;;
43146;SDS011;28752;48.266;7.402;2023-08-21T03:56:49;10.88;;;6.50;;
43146;SDS011;28752;48.266;7.402;2023-08-21T04:01:39;8.93;;;5.80;;
43146;SDS011;28752;48.266;7.402;2023-08-21T04:04:05;9.10;;;5.40;;
43146;SDS011;28752;48.266;7.402;2023-08-21T04:06:30;8.70;;;5.93;;
43146;SDS011;28752;48.266;7.402;2023-08-21T04:08:55;7.93;;;5.25;;
43146;SDS011;28752;48.266;7.402;2023-08-21T04:11:20;8.25;;;5.25;;
43146;SDS011;28752;48.266;7.402;2023-08-21T04:13:46;8.30;;;5.65;;
43146;SDS011;28752;48.266;7.402;2023-08-21T04:16:11;8.90;;;5.63;;
43146;SDS011;28752;48.266;7.402;2023-08-21T04:18:37;10.27;;;5.60;;
43146;SDS011;28752;48.266;7.402;2023-08-21T04:21:03;8.25;;;5.13;;
43146;SDS011;28752;48.266;7.402;2023-08-21T04:23:29;9.65;;;5.97;;
43146;SDS011;28752;48.266;7.402;2023-08-21T04:25:59;7.13;;;4.80;;
43146;SDS011;28752;48.266;7.402;2023-08-21T04:28:26;8.27;;;5.70;;
43146;SDS011;28752;48.266;7.402;2023-08-21T04:30:51;8.87;;;6.03;;
43146;SDS011;28752;48.266;7.402;2023-08-21T04:33:17;8.57;;;5.23;;
43146;SDS011;28752;48.266;7.402;2023-08-21T04:35:42;8.13;;;5.00;;
43146;SDS011;28752;48.266;7.402;2023-08-21T04:38:07;8.32;;;5.03;;
43146;SDS011;28752;48.266;7.402;2023-08-21T04:40:33;10.00;;;5.13;;
43146;SDS011;28752;48.266;7.402;2023-08-21T04:42:58;9.20;;;5.57;;
43146;SDS011;28752;48.266;7.402;2023-08-21T04:45:23;8.80;;;5.50;;
43146;SDS011;28752;48.266;7.402;2023-08-21T04:47:49;8.95;;;5.05;;
43146;SDS011;28752;48.266;7.402;2023-08-21T04:50:14;9.63;;;5.38;;
43146;SDS011;28752;48.266;7.402;2023-08-21T04:52:40;7.63;;;4.90;;
43146;SDS011;28752;48.266;7.402;2023-08-21T04:55:06;7.47;;;5.20;;
43146;SDS011;28752;48.266;7.402;2023-08-21T04:57:32;8.07;;;4.97;;
43146;SDS011;28752;48.266;7.402;2023-08-21T04:59:57;8.43;;;5.22;;
43146;SDS011;28752;48.266;7.402;2023-08-21T05:02:22;8.47;;;5.40;;
43146;SDS011;28752;48.266;7.402;2023-08-21T05:04:48;8.48;;;5.65;;
43146;SDS011;28752;48.266;7.402;2023-08-21T05:07:13;8.20;;;5.95;;
43146;SDS011;28752;48.266;7.402;2023-08-21T05:09:38;7.85;;;5.50;;
43146;SDS011;28752;48.266;7.402;2023-08-21T05:12:04;9.38;;;5.78;;
43146;SDS011;28752;48.266;7.402;2023-08-21T05:14:30;8.85;;;5.45;;
43146;SDS011;28752;48.266;7.402;2023-08-21T05:16:56;8.38;;;5.43;;
43146;SDS011;28752;48.266;7.402;2023-08-21T05:19:21;9.10;;;6.00;;
43146;SDS011;28752;48.266;7.402;2023-08-21T05:21:46;10.38;;;5.35;;
43146;SDS011;28752;48.266;7.402;2023-08-21T05:24:12;9.70;;;4.95;;
43146;SDS011;28752;48.266;7.402;2023-08-21T05:26:38;8.68;;;5.00;;
43146;SDS011;28752;48.266;7.402;2023-08-21T05:29:03;9.60;;;5.22;;
43146;SDS011;28752;48.266;7.402;2023-08-21T05:31:29;9.82;;;5.55;;
43146;SDS011;28752;48.266;7.402;2023-08-21T05:33:54;6.85;;;4.85;;
43146;SDS011;28752;48.266;7.402;2023-08-21T05:36:20;9.13;;;5.45;;
43146;SDS011;28752;48.266;7.402;2023-08-21T05:38:45;8.25;;;4.68;;
43146;SDS011;28752;48.266;7.402;2023-08-21T05:41:12;7.82;;;5.40;;
43146;SDS011;28752;48.266;7.402;2023-08-21T05:43:38;6.55;;;4.68;;
43146;SDS011;28752;48.266;7.402;2023-08-21T05:48:31;8.07;;;5.20;;
43146;SDS011;28752;48.266;7.402;2023-08-21T05:50:56;7.85;;;4.70;;
43146;SDS011;28752;48.266;7.402;2023-08-21T05:53:22;9.27;;;5.43;;
43146;SDS011;28752;48.266;7.402;2023-08-21T05:55:47;10.65;;;5.75;;
43146;SDS011;28752;48.266;7.402;2023-08-21T06:00:38;7.20;;;4.67;;
43146;SDS011;28752;48.266;7.402;2023-08-21T06:03:04;7.15;;;4.80;;
43146;SDS011;28752;48.266;7.402;2023-08-21T06:07:55;8.77;;;4.68;;
43146;SDS011;28752;48.266;7.402;2023-08-21T06:12:45;8.47;;;4.63;;
43146;SDS011;28752;48.266;7.402;2023-08-21T06:17:37;6.70;;;4.65;;
43146;SDS011;28752;48.266;7.402;2023-08-21T06:20:03;8.35;;;5.25;;
43146;SDS011;28752;48.266;7.402;2023-08-21T06:22:34;6.28;;;4.63;;
43146;SDS011;28752;48.266;7.402;2023-08-21T06:25:00;8.57;;;5.10;;
43146;SDS011;28752;48.266;7.402;2023-08-21T06:29:50;8.20;;;4.43;;
43146;SDS011;28752;48.266;7.402;2023-08-21T06:37:06;6.77;;;4.40;;
43146;SDS011;28752;48.266;7.402;2023-08-21T06:41:57;9.35;;;4.45;;
43146;SDS011;28752;48.266;7.402;2023-08-21T06:44:23;7.00;;;4.30;;
43146;SDS011;28752;48.266;7.402;2023-08-21T06:46:48;6.30;;;4.13;;
43146;SDS011;28752;48.266;7.402;2023-08-21T06:49:13;7.07;;;4.10;;
43146;SDS011;28752;48.266;7.402;2023-08-21T06:51:39;7.47;;;3.83;;
43146;SDS011;28752;48.266;7.402;2023-08-21T06:54:04;7.90;;;3.90;;
43146;SDS011;28752;48.266;7.402;2023-08-21T06:56:29;5.40;;;3.83;;
43146;SDS011;28752;48.266;7.402;2023-08-21T06:58:55;7.45;;;3.60;;
43146;SDS011;28752;48.266;7.402;2023-08-21T07:01:20;7.07;;;4.32;;
43146;SDS011;28752;48.266;7.402;2023-08-21T07:03:46;6.95;;;3.85;;
43146;SDS011;28752;48.266;7.402;2023-08-21T07:06:11;5.53;;;3.45;;
43146;SDS011;28752;48.266;7.402;2023-08-21T07:08:37;7.43;;;3.83;;
43146;SDS011;28752;48.266;7.402;2023-08-21T07:11:04;6.45;;;3.75;;
43146;SDS011;28752;48.266;7.402;2023-08-21T07:13:29;6.85;;;3.75;;
43146;SDS011;28752;48.266;7.402;2023-08-21T07:15:55;7.65;;;3.60;;
43146;SDS011;28752;48.266;7.402;2023-08-21T07:18:20;7.53;;;4.03;;
43146;SDS011;28752;48.266;7.402;2023-08-21T07:20:46;6.40;;;3.67;;
43146;SDS011;28752;48.266;7.402;2023-08-21T07:23:11;6.80;;;3.60;;
43146;SDS011;28752;48.266;7.402;2023-08-21T07:25:36;6.20;;;3.72;;
43146;SDS011;28752;48.266;7.402;2023-08-21T07:28:02;6.90;;;3.65;;
43146;SDS011;28752;48.266;7.402;2023-08-21T07:30:27;6.35;;;4.10;;
43146;SDS011;28752;48.266;7.402;2023-08-21T07:32:53;7.10;;;3.92;;
43146;SDS011;28752;48.266;7.402;2023-08-21T07:35:18;6.18;;;4.13;;
43146;SDS011;28752;48.266;7.402;2023-08-21T07:37:44;7.30;;;4.25;;
43146;SDS011;28752;48.266;7.402;2023-08-21T07:40:10;8.57;;;4.00;;
43146;SDS011;28752;48.266;7.402;2023-08-21T07:42:35;6.68;;;4.28;;
43146;SDS011;28752;48.266;7.402;2023-08-21T07:45:01;7.03;;;3.80;;
43146;SDS011;28752;48.266;7.402;2023-08-21T07:47:27;6.25;;;4.00;;
43146;SDS011;28752;48.266;7.402;2023-08-21T07:49:53;7.40;;;3.67;;
43146;SDS011;28752;48.266;7.402;2023-08-21T07:52:18;7.35;;;4.22;;
43146;SDS011;28752;48.266;7.402;2023-08-21T07:54:44;5.97;;;3.95;;
43146;SDS011;28752;48.266;7.402;2023-08-21T07:57:09;8.23;;;4.70;;
43146;SDS011;28752;48.266;7.402;2023-08-21T07:59:35;5.80;;;4.00;;
43146;SDS011;28752;48.266;7.402;2023-08-21T08:02:01;8.68;;;4.65;;
43146;SDS011;28752;48.266;7.402;2023-08-21T08:04:27;8.43;;;4.32;;
43146;SDS011;28752;48.266;7.402;2023-08-21T08:06:53;7.10;;;4.63;;
43146;SDS011;28752;48.266;7.402;2023-08-21T08:09:18;7.40;;;4.53;;
43146;SDS011;28752;48.266;7.402;2023-08-21T08:11:44;6.88;;;4.78;;
43146;SDS011;28752;48.266;7.402;2023-08-21T08:14:09;9.07;;;5.35;;
43146;SDS011;28752;48.266;7.402;2023-08-21T08:16:34;6.85;;;4.60;;
43146;SDS011;28752;48.266;7.402;2023-08-21T08:19:00;7.78;;;4.60;;
43146;SDS011;28752;48.266;7.402;2023-08-21T08:21:25;7.53;;;4.75;;
43146;SDS011;28752;48.266;7.402;2023-08-21T08:23:50;8.18;;;4.30;;
43146;SDS011;28752;48.266;7.402;2023-08-21T08:26:16;7.57;;;5.18;;
43146;SDS011;28752;48.266;7.402;2023-08-21T08:28:41;9.75;;;4.72;;
43146;SDS011;28752;48.266;7.402;2023-08-21T08:31:13;7.68;;;4.65;;
43146;SDS011;28752;48.266;7.402;2023-08-21T08:33:39;9.02;;;4.65;;
43146;SDS011;28752;48.266;7.402;2023-08-21T08:36:07;8.82;;;4.55;;
43146;SDS011;28752;48.266;7.402;2023-08-21T08:38:33;8.10;;;4.68;;
43146;SDS011;28752;48.266;7.402;2023-08-21T08:40:58;9.27;;;4.25;;
43146;SDS011;28752;48.266;7.402;2023-08-21T08:43:27;6.75;;;4.45;;
43146;SDS011;28752;48.266;7.402;2023-08-21T08:45:54;7.82;;;4.47;;
43146;SDS011;28752;48.266;7.402;2023-08-21T08:48:23;7.15;;;4.78;;
43146;SDS011;28752;48.266;7.402;2023-08-21T08:50:49;9.55;;;5.30;;
43146;SDS011;28752;48.266;7.402;2023-08-21T08:53:15;8.30;;;5.03;;
43146;SDS011;28752;48.266;7.402;2023-08-21T08:55:43;8.90;;;5.10;;
43146;SDS011;28752;48.266;7.402;2023-08-21T08:58:09;8.18;;;5.05;;
43146;SDS011;28752;48.266;7.402;2023-08-21T09:00:34;9.02;;;4.90;;
43146;SDS011;28752;48.266;7.402;2023-08-21T09:02:59;8.10;;;4.50;;
43146;SDS011;28752;48.266;7.402;2023-08-21T09:05:25;7.25;;;5.25;;
43146;SDS011;28752;48.266;7.402;2023-08-21T09:08:09;8.35;;;5.28;;
43146;SDS011;28752;48.266;7.402;2023-08-21T09:10:39;7.90;;;5.25;;
43146;SDS011;28752;48.266;7.402;2023-08-21T09:13:10;11.65;;;4.93;;
43146;SDS011;28752;48.266;7.402;2023-08-21T09:15:36;9.13;;;4.68;;
43146;SDS011;28752;48.266;7.402;2023-08-21T09:18:01;8.75;;;4.90;;
43146;SDS011;28752;48.266;7.402;2023-08-21T09:20:27;7.63;;;5.35;;
43146;SDS011;28752;48.266;7.402;2023-08-21T09:22:53;7.68;;;4.82;;
43146;SDS011;28752;48.266;7.402;2023-08-21T09:25:20;9.05;;;5.25;;
43146;SDS011;28752;48.266;7.402;2023-08-21T09:27:45;9.27;;;4.93;;
43146;SDS011;28752;48.266;7.402;2023-08-21T09:30:11;10.88;;;5.47;;
43146;SDS011;28752;48.266;7.402;2023-08-21T09:32:59;7.35;;;5.18;;
43146;SDS011;28752;48.266;7.402;2023-08-21T09:35:25;8.48;;;4.97;;
43146;SDS011;28752;48.266;7.402;2023-08-21T09:37:51;9.38;;;5.03;;
43146;SDS011;28752;48.266;7.402;2023-08-21T09:40:18;8.95;;;4.95;;
43146;SDS011;28752;48.266;7.402;2023-08-21T09:42:43;7.43;;;5.00;;
43146;SDS011;28752;48.266;7.402;2023-08-21T09:45:09;8.27;;;5.10;;
43146;SDS011;28752;48.266;7.402;2023-08-21T09:47:35;6.55;;;4.53;;
43146;SDS011;28752;48.266;7.402;2023-08-21T09:50:03;7.88;;;5.05;;
43146;SDS011;28752;48.266;7.402;2023-08-21T09:52:29;7.55;;;4.80;;
43146;SDS011;28752;48.266;7.402;2023-08-21T09:54:55;8.27;;;4.57;;
43146;SDS011;28752;48.266;7.402;2023-08-21T09:57:22;7.78;;;4.80;;
43146;SDS011;28752;48.266;7.402;2023-08-21T09:59:51;7.95;;;5.03;;
43146;SDS011;28752;48.266;7.402;2023-08-21T10:02:18;6.03;;;4.28;;
43146;SDS011;28752;48.266;7.402;2023-08-21T10:04:44;8.85;;;4.53;;
43146;SDS011;28752;48.266;7.402;2023-08-21T10:07:10;8.13;;;4.90;;
43146;SDS011;28752;48.266;7.402;2023-08-21T10:09:37;8.48;;;5.07;;
43146;SDS011;28752;48.266;7.402;2023-08-21T10:12:06;6.68;;;4.07;;
43146;SDS011;28752;48.266;7.402;2023-08-21T10:14:34;6.28;;;4.20;;
43146;SDS011;28752;48.266;7.402;2023-08-21T10:17:00;7.10;;;4.30;;
43146;SDS011;28752;48.266;7.402;2023-08-21T10:19:32;6.93;;;4.07;;
43146;SDS011;28752;48.266;7.402;2023-08-21T10:21:58;6.57;;;4.25;;
43146;SDS011;28752;48.266;7.402;2023-08-21T10:24:27;7.70;;;4.10;;
43146;SDS011;28752;48.266;7.402;2023-08-21T10:27:03;7.55;;;3.58;;
43146;SDS011;28752;48.266;7.402;2023-08-21T10:29:28;7.82;;;4.40;;
43146;SDS011;28752;48.266;7.402;2023-08-21T10:32:03;5.85;;;3.78;;
43146;SDS011;28752;48.266;7.402;2023-08-21T10:34:33;5.43;;;3.63;;
43146;SDS011;28752;48.266;7.402;2023-08-21T10:39:25;7.03;;;4.47;;
43146;SDS011;28752;48.266;7.402;2023-08-21T10:41:54;7.00;;;3.45;;
43146;SDS011;28752;48.266;7.402;2023-08-21T10:49:38;6.57;;;3.92;;
43146;SDS011;28752;48.266;7.402;2023-08-21T10:52:03;8.27;;;3.78;;
43146;SDS011;28752;48.266;7.402;2023-08-21T10:54:42;6.43;;;4.32;;
43146;SDS011;28752;48.266;7.402;2023-08-21T10:57:08;7.22;;;4.35;;
43146;SDS011;28752;48.266;7.402;2023-08-21T10:59:33;7.97;;;4.68;;
43146;SDS011;28752;48.266;7.402;2023-08-21T11:01:58;7.13;;;4.38;;
43146;SDS011;28752;48.266;7.402;2023-08-21T11:04:24;6.97;;;4.43;;
43146;SDS011;28752;48.266;7.402;2023-08-21T11:06:51;5.75;;;3.67;;
43146;SDS011;28752;48.266;7.402;2023-08-21T11:09:16;6.40;;;4.05;;
43146;SDS011;28752;48.266;7.402;2023-08-21T11:11:43;7.35;;;4.32;;
43146;SDS011;28752;48.266;7.402;2023-08-21T11:14:08;6.35;;;4.10;;
43146;SDS011;28752;48.266;7.402;2023-08-21T11:16:34;6.38;;;4.50;;
43146;SDS011;28752;48.266;7.402;2023-08-21T11:19:03;7.22;;;4.55;;
43146;SDS011;28752;48.266;7.402;2023-08-21T11:21:29;6.13;;;4.03;;
43146;SDS011;28752;48.266;7.402;2023-08-21T11:23:55;5.97;;;4.07;;
43146;SDS011;28752;48.266;7.402;2023-08-21T11:26:20;8.93;;;4.35;;
43146;SDS011;28752;48.266;7.402;2023-08-21T11:28:46;5.70;;;4.03;;
43146;SDS011;28752;48.266;7.402;2023-08-21T11:31:12;7.47;;;4.15;;
43146;SDS011;28752;48.266;7.402;2023-08-21T11:33:38;8.63;;;4.32;;
43146;SDS011;28752;48.266;7.402;2023-08-21T11:36:04;7.15;;;4.15;;
43146;SDS011;28752;48.266;7.402;2023-08-21T11:38:29;6.63;;;4.95;;
43146;SDS011;28752;48.266;7.402;2023-08-21T11:43:34;9.77;;;4.30;;
43146;SDS011;28752;48.266;7.402;2023-08-21T11:46:00;8.38;;;4.18;;
43146;SDS011;28752;48.266;7.402;2023-08-21T11:48:29;6.38;;;4.10;;
43146;SDS011;28752;48.266;7.402;2023-08-21T11:50:54;7.28;;;4.07;;
43146;SDS011;28752;48.266;7.402;2023-08-21T11:53:30;6.47;;;4.22;;
43146;SDS011;28752;48.266;7.402;2023-08-21T11:56:03;6.80;;;4.00;;
43146;SDS011;28752;48.266;7.402;2023-08-21T11:58:37;6.68;;;3.92;;
43146;SDS011;28752;48.266;7.402;2023-08-21T12:01:04;5.88;;;4.15;;
43146;SDS011;28752;48.266;7.402;2023-08-21T12:03:30;7.32;;;4.30;;
43146;SDS011;28752;48.266;7.402;2023-08-21T12:06:03;7.25;;;4.60;;
43146;SDS011;28752;48.266;7.402;2023-08-21T12:08:30;7.20;;;4.30;;
43146;SDS011;28752;48.266;7.402;2023-08-21T12:10:55;6.07;;;4.47;;
43146;SDS011;28752;48.266;7.402;2023-08-21T12:13:21;8.95;;;4.10;;
43146;SDS011;28752;48.266;7.402;2023-08-21T12:15:46;6.20;;;4.00;;
43146;SDS011;28752;48.266;7.402;2023-08-21T12:18:11;6.18;;;3.90;;
43146;SDS011;28752;48.266;7.402;2023-08-21T12:20:37;6.25;;;4.07;;
43146;SDS011;28752;48.266;7.402;2023-08-21T12:23:02;6.50;;;3.80;;
43146;SDS011;28752;48.266;7.402;2023-08-21T12:25:28;8.00;;;4.40;;
43146;SDS011;28752;48.266;7.402;2023-08-21T12:27:53;5.85;;;4.10;;
43146;SDS011;28752;48.266;7.402;2023-08-21T12:30:18;6.25;;;3.97;;
43146;SDS011;28752;48.266;7.402;2023-08-21T12:32:44;6.32;;;3.90;;
43146;SDS011;28752;48.266;7.402;2023-08-21T12:35:09;9.00;;;4.57;;
43146;SDS011;28752;48.266;7.402;2023-08-21T12:37:37;6.80;;;4.10;;
43146;SDS011;28752;48.266;7.402;2023-08-21T12:40:02;7.35;;;4.07;;
43146;SDS011;28752;48.266;7.402;2023-08-21T12:42:28;8.27;;;3.88;;
43146;SDS011;28752;48.266;7.402;2023-08-21T12:44:53;6.13;;;4.10;;
43146;SDS011;28752;48.266;7.402;2023-08-21T12:47:18;6.20;;;3.70;;
43146;SDS011;28752;48.266;7.402;2023-08-21T12:49:44;7.88;;;4.53;;
43146;SDS011;28752;48.266;7.402;2023-08-21T12:52:09;6.18;;;3.72;;
43146;SDS011;28752;48.266;7.402;2023-08-21T12:54:36;6.80;;;4.38;;
43146;SDS011;28752;48.266;7.402;2023-08-21T12:57:02;5.78;;;3.90;;
43146;SDS011;28752;48.266;7.402;2023-08-21T12:59:27;6.57;;;3.92;;
43146;SDS011;28752;48.266;7.402;2023-08-21T13:01:52;6.55;;;4.30;;
43146;SDS011;28752;48.266;7.402;2023-08-21T13:04:17;8.52;;;4.13;;
43146;SDS011;28752;48.266;7.402;2023-08-21T13:06:43;7.90;;;4.38;;
43146;SDS011;28752;48.266;7.402;2023-08-21T13:09:08;7.13;;;4.15;;
43146;SDS011;28752;48.266;7.402;2023-08-21T13:11:33;7.22;;;4.28;;
43146;SDS011;28752;48.266;7.402;2023-08-21T13:13:59;14.18;;;4.18;;
43146;SDS011;28752;48.266;7.402;2023-08-21T13:16:24;6.97;;;4.13;;
43146;SDS011;28752;48.266;7.402;2023-08-21T13:18:49;7.03;;;3.85;;
43146;SDS011;28752;48.266;7.402;2023-08-21T13:21:15;6.28;;;4.03;;
43146;SDS011;28752;48.266;7.402;2023-08-21T13:23:40;6.75;;;4.68;;
43146;SDS011;28752;48.266;7.402;2023-08-21T13:26:05;6.40;;;3.90;;
43146;SDS011;28752;48.266;7.402;2023-08-21T13:28:31;5.70;;;3.70;;
43146;SDS011;28752;48.266;7.402;2023-08-21T13:30:56;6.07;;;4.00;;
43146;SDS011;28752;48.266;7.402;2023-08-21T13:33:22;7.03;;;4.18;;
43146;SDS011;28752;48.266;7.402;2023-08-21T13:35:47;7.13;;;4.25;;
43146;SDS011;28752;48.266;7.402;2023-08-21T13:38:13;6.35;;;3.88;;
43146;SDS011;28752;48.266;7.402;2023-08-21T13:40:39;8.13;;;3.67;;
43146;SDS011;28752;48.266;7.402;2023-08-21T13:43:05;6.00;;;3.70;;
43146;SDS011;28752;48.266;7.402;2023-08-21T13:45:32;5.97;;;3.92;;
43146;SDS011;28752;48.266;7.402;2023-08-21T13:47:57;6.72;;;4.15;;
43146;SDS011;28752;48.266;7.402;2023-08-21T13:50:23;6.60;;;3.85;;
43146;SDS011;28752;48.266;7.402;2023-08-21T13:52:48;6.78;;;3.67;;
43146;SDS011;28752;48.266;7.402;2023-08-21T13:55:13;6.70;;;4.18;;
43146;SDS011;28752;48.266;7.402;2023-08-21T13:57:39;7.13;;;3.80;;
43146;SDS011;28752;48.266;7.402;2023-08-21T14:00:06;7.53;;;3.75;;
43146;SDS011;28752;48.266;7.402;2023-08-21T14:02:36;7.07;;;3.65;;
43146;SDS011;28752;48.266;7.402;2023-08-21T14:05:02;5.65;;;3.72;;
43146;SDS011;28752;48.266;7.402;2023-08-21T14:07:29;6.88;;;3.55;;
43146;SDS011;28752;48.266;7.402;2023-08-21T14:09:55;7.20;;;4.18;;
43146;SDS011;28752;48.266;7.402;2023-08-21T14:12:20;7.32;;;3.90;;
43146;SDS011;28752;48.266;7.402;2023-08-21T14:14:46;6.30;;;4.00;;
43146;SDS011;28752;48.266;7.402;2023-08-21T14:17:11;6.15;;;3.83;;
43146;SDS011;28752;48.266;7.402;2023-08-21T14:19:36;7.13;;;3.47;;
43146;SDS011;28752;48.266;7.402;2023-08-21T14:22:02;7.53;;;3.92;;
43146;SDS011;28752;48.266;7.402;2023-08-21T14:24:28;6.72;;;3.53;;
43146;SDS011;28752;48.266;7.402;2023-08-21T14:26:53;7.00;;;3.78;;
43146;SDS011;28752;48.266;7.402;2023-08-21T14:29:18;6.22;;;4.05;;
43146;SDS011;28752;48.266;7.402;2023-08-21T14:31:44;8.52;;;4.07;;
43146;SDS011;28752;48.266;7.402;2023-08-21T14:34:11;9.48;;;3.70;;
43146;SDS011;28752;48.266;7.402;2023-08-21T14:36:37;7.85;;;4.18;;
43146;SDS011;28752;48.266;7.402;2023-08-21T14:39:02;6.10;;;3.92;;
43146;SDS011;28752;48.266;7.402;2023-08-21T14:41:28;6.00;;;4.07;;
43146;SDS011;28752;48.266;7.402;2023-08-21T14:43:54;9.13;;;4.30;;
43146;SDS011;28752;48.266;7.402;2023-08-21T14:46:19;7.68;;;3.80;;
43146;SDS011;28752;48.266;7.402;2023-08-21T14:48:44;6.55;;;4.10;;
43146;SDS011;28752;48.266;7.402;2023-08-21T14:51:10;7.97;;;3.80;;
43146;SDS011;28752;48.266;7.402;2023-08-21T14:53:35;5.60;;;3.88;;
43146;SDS011;28752;48.266;7.402;2023-08-21T14:56:00;5.93;;;4.13;;
43146;SDS011;28752;48.266;7.402;2023-08-21T14:58:26;5.35;;;4.03;;
43146;SDS011;28752;48.266;7.402;2023-08-21T15:00:54;6.82;;;4.10;;
43146;SDS011;28752;48.266;7.402;2023-08-21T15:03:21;7.47;;;3.83;;
43146;SDS011;28752;48.266;7.402;2023-08-21T15:05:46;6.40;;;4.15;;
43146;SDS011;28752;48.266;7.402;2023-08-21T15:08:12;5.82;;;4.07;;
43146;SDS011;28752;48.266;7.402;2023-08-21T15:10:37;7.70;;;4.32;;
43146;SDS011;28752;48.266;7.402;2023-08-21T15:13:02;5.65;;;3.53;;
43146;SDS011;28752;48.266;7.402;2023-08-21T15:15:28;7.35;;;4.40;;
43146;SDS011;28752;48.266;7.402;2023-08-21T15:17:53;7.78;;;4.13;;
43146;SDS011;28752;48.266;7.402;2023-08-21T15:20:19;5.72;;;3.50;;
43146;SDS011;28752;48.266;7.402;2023-08-21T15:22:45;6.03;;;3.90;;
43146;SDS011;28752;48.266;7.402;2023-08-21T15:25:12;5.03;;;3.45;;
43146;SDS011;28752;48.266;7.402;2023-08-21T15:27:38;5.65;;;3.60;;
43146;SDS011;28752;48.266;7.402;2023-08-21T15:30:04;8.25;;;4.03;;
43146;SDS011;28752;48.266;7.402;2023-08-21T15:32:30;6.15;;;3.75;;
43146;SDS011;28752;48.266;7.402;2023-08-21T15:34:56;6.25;;;3.55;;
43146;SDS011;28752;48.266;7.402;2023-08-21T15:37:21;6.18;;;4.10;;
43146;SDS011;28752;48.266;7.402;2023-08-21T15:39:48;5.15;;;3.78;;
43146;SDS011;28752;48.266;7.402;2023-08-21T15:42:13;6.57;;;3.72;;
43146;SDS011;28752;48.266;7.402;2023-08-21T15:44:38;6.63;;;3.80;;
43146;SDS011;28752;48.266;7.402;2023-08-21T15:47:04;7.75;;;4.40;;
43146;SDS011;28752;48.266;7.402;2023-08-21T15:49:29;6.20;;;3.67;;
43146;SDS011;28752;48.266;7.402;2023-08-21T15:51:54;6.50;;;3.95;;
43146;SDS011;28752;48.266;7.402;2023-08-21T15:54:20;7.90;;;3.92;;
43146;SDS011;28752;48.266;7.402;2023-08-21T15:56:46;9.48;;;3.95;;
43146;SDS011;28752;48.266;7.402;2023-08-21T15:59:11;6.07;;;4.00;;
43146;SDS011;28752;48.266;7.402;2023-08-21T16:01:37;5.88;;;3.80;;
43146;SDS011;28752;48.266;7.402;2023-08-21T16:04:03;6.57;;;4.53;;
43146;SDS011;28752;48.266;7.402;2023-08-21T16:06:28;5.50;;;4.00;;
43146;SDS011;28752;48.266;7.402;2023-08-21T16:08:54;6.20;;;3.88;;
43146;SDS011;28752;48.266;7.402;2023-08-21T16:11:19;6.38;;;3.97;;